Carroll, New Hampshire
Current Conditions -  °F | °C
As of 3:52 PM on Tuesday 27 Jan 2015 (Local Time) from KHIE Reporting Station
Light Snow Light Snow  
Wind Chill: -7°   Ceiling: 1900
Heat Index:   Visibility: 1.2mi
Dew Point:   Wind: 12mph
Humidity: 73%   Direction: 340°NNW
Pressure: 29.69"   Gusts: 22mph
Location:  44.3374°N, 71.528°W
Report Text: KHIE 272052Z AUTO 34010G19KT 1 1/4SM -SN OVC019 M13/M17 A2969 RMK AO2 SLP076 P0000 60000 T11331172 53003
Loading
Personal Weather Stations






























Interactive Weather Map New forecast layout! Learn more

10-Day Weather Forecast

Advertisements
Track Severe Weather on mobile